Tortola's Pride — HO-3796 — position and weather

sailwx.info

Track history (hours):
 
Tides and Currents Weather Stations Pressure Air Temp Water Temp Dewpoint Dewpoint Depression Visibility Wind Speed Wind Dir Waves Ship Positions

Tortola's Pride

Last reported at 2016-Apr-29 04:33 UTC. Time now 2016-Apr-29 06:01 UTC.
Position N 18°28' W 066°06'.

Length 49 m; draft 2.8 m.

Type: Cargo ship. MMSI: 355921000.

Date/timePositionNaut miles runAvg speedWind from/ knotsBaromVisibWave heightAir tempDewpointWater temp
2016-Apr-29 04:33N 18°28' W 066°06'0 0.0
2016-Apr-29 03:33N 18°28' W 066°06'0 0.0
2016-Apr-29 02:33N 18°28' W 066°06'0 0.0
2016-Apr-29 01:33N 18°28' W 066°06'0 0.0
2016-Apr-29 00:33N 18°28' W 066°06'0 0.0
2016-Apr-28 23:33N 18°28' W 066°06'0 0.0
2016-Apr-28 22:33N 18°28' W 066°06'0 0.0
2016-Apr-28 21:33N 18°28' W 066°06'0 0.0
2016-Apr-28 20:33N 18°28' W 066°06'0 0.0
2016-Apr-28 19:33N 18°28' W 066°06'0 0.0
2016-Apr-28 18:32N 18°28' W 066°06'0 0.0
2016-Apr-28 17:33N 18°28' W 066°06'0 0.0
2016-Apr-28 16:33N 18°28' W 066°06'0 0.0
2016-Apr-28 15:33N 18°28' W 066°06'0 0.0
2016-Apr-28 14:33N 18°28' W 066°06'0 0.0
2016-Apr-28 13:32N 18°28' W 066°06'0 0.0
2016-Apr-28 12:33N 18°28' W 066°06'0 0.0
2016-Apr-28 11:33N 18°28' W 066°06'0 0.0
2016-Apr-28 10:33N 18°28' W 066°06'0 0.0
2016-Apr-28 09:33N 18°28' W 066°06'0 0.0
2016-Apr-28 08:33N 18°28' W 066°06'0 0.0
2016-Apr-28 07:34N 18°28' W 066°06'0 0.0
2016-Apr-28 06:34N 18°28' W 066°06'0 0.0
2016-Apr-28 05:33N 18°28' W 066°06'0 0.0
2016-Apr-28 04:33N 18°28' W 066°06'0 0.0
2016-Apr-28 03:33N 18°28' W 066°06'0 0.0
2016-Apr-28 02:33N 18°28' W 066°06'0 0.0
2016-Apr-28 01:33N 18°28' W 066°06'0 0.0
2016-Apr-28 00:33N 18°28' W 066°06'0 0.0
2016-Apr-27 23:33N 18°28' W 066°06'0 0.0
2016-Apr-27 22:33N 18°28' W 066°06'0 0.0
2016-Apr-27 21:33N 18°28' W 066°06'0 0.0
2016-Apr-27 20:33N 18°28' W 066°06'0 0.0
2016-Apr-27 19:33N 18°28' W 066°06'0 0.0
2016-Apr-27 18:33N 18°28' W 066°06'0 0.0
2016-Apr-27 17:33N 18°28' W 066°06'0 0.0
2016-Apr-27 16:33N 18°28' W 066°06'0 0.0
2016-Apr-27 15:33N 18°28' W 066°06'0 0.5
2016-Apr-27 14:33N 18°27' W 066°07'68 9.5
2016-Apr-27 07:26N 18°26' W 064°55'910.1
2016-Apr-27 06:33N 18°23' W 064°47'10 9.3
2016-Apr-27 05:31N 18°25' W 064°36'  
2016-Apr-23 00:15N 18°25' W 064°36'6 8.9
2016-Apr-22 23:33N 18°23' W 064°43'9 8.8
2016-Apr-22 22:33N 18°18' W 064°51'68 3.6
2016-Apr-22 03:22N 18°30' W 066°02'6 7.1
2016-Apr-22 02:33N 18°27' W 066°07'1 0.9
2016-Apr-22 01:33N 18°28' W 066°06'0 0.0
2016-Apr-22 00:33N 18°28' W 066°06'0 0.0
2016-Apr-21 23:33N 18°28' W 066°06'0 0.0
2016-Apr-21 22:33N 18°28' W 066°06'0 0.0
2016-Apr-21 21:33N 18°28' W 066°06'0 0.0
2016-Apr-21 18:17N 18°28' W 066°06'0 0.0
2016-Apr-21 17:33N 18°28' W 066°06'0 0.0
2016-Apr-21 16:33N 18°28' W 066°06'0 0.0
2016-Apr-21 15:33N 18°28' W 066°06'0 0.0
2016-Apr-21 14:33N 18°28' W 066°06'0 0.0
2016-Apr-21 13:33N 18°28' W 066°06'0 0.0
2016-Apr-21 12:33N 18°28' W 066°06'0 0.0
2016-Apr-21 11:33N 18°28' W 066°06'0 0.0
2016-Apr-21 10:33N 18°28' W 066°06'0 0.0
2016-Apr-21 09:33N 18°28' W 066°06'0 0.0
2016-Apr-21 08:33N 18°28' W 066°06'0 0.0
2016-Apr-21 07:33N 18°28' W 066°06'0 0.0
2016-Apr-21 06:33N 18°28' W 066°06'0 0.0
2016-Apr-21 05:33N 18°28' W 066°06'0 0.0
2016-Apr-21 04:33N 18°28' W 066°06'0 0.0
2016-Apr-21 03:33N 18°28' W 066°06'0 0.0
2016-Apr-21 02:33N 18°28' W 066°06'0 0.0
2016-Apr-21 01:33N 18°28' W 066°06'0 0.0
2016-Apr-21 00:33N 18°28' W 066°06'0 0.0
2016-Apr-20 23:33N 18°28' W 066°06'0 0.0
2016-Apr-20 22:33N 18°28' W 066°06'0 0.0
2016-Apr-20 21:33N 18°28' W 066°06'0 0.0
2016-Apr-20 20:33N 18°28' W 066°06'0 0.0
2016-Apr-20 19:33N 18°28' W 066°06'0 0.0
2016-Apr-20 18:33N 18°28' W 066°06'0 0.0
2016-Apr-20 17:33N 18°28' W 066°06'0 0.0
2016-Apr-20 16:33N 18°28' W 066°06'0 0.0
2016-Apr-20 15:33N 18°28' W 066°06'0 0.0
2016-Apr-20 14:33N 18°28' W 066°06'68 6.8
2016-Apr-20 04:33N 18°26' W 064°54'9 9.5
2016-Apr-20 03:33N 18°23' W 064°45'8 0.7
2016-Apr-19 15:28N 18°26' W 064°37'0 0.0
2016-Apr-19 14:24N 18°26' W 064°37'  
Track history (hours):
 
Tides and Currents Weather Stations Pressure Air Temp Water Temp Dewpoint Dewpoint Depression Visibility Wind Speed Wind Dir Waves Ship Positions

Tortola's Pride

Last reported at 2016-Apr-29 04:33 UTC. Time now 2016-Apr-29 06:01 UTC.
Position N 18°28' W 066°06'.

Length 49 m; draft 2.8 m.

Type: Cargo ship. MMSI: 355921000.

Date/timePositionNaut miles runAvg speedWind from/ knotsBaromVisibWave heightAir tempDewpointWater temp
2016-Apr-29 04:33N 18°28' W 066°06'0 0.0
2016-Apr-29 03:33N 18°28' W 066°06'0 0.0
2016-Apr-29 02:33N 18°28' W 066°06'0 0.0
2016-Apr-29 01:33N 18°28' W 066°06'0 0.0
2016-Apr-29 00:33N 18°28' W 066°06'0 0.0
2016-Apr-28 23:33N 18°28' W 066°06'0 0.0
2016-Apr-28 22:33N 18°28' W 066°06'0 0.0
2016-Apr-28 21:33N 18°28' W 066°06'0 0.0
2016-Apr-28 20:33N 18°28' W 066°06'0 0.0
2016-Apr-28 19:33N 18°28' W 066°06'0 0.0
2016-Apr-28 18:32N 18°28' W 066°06'0 0.0
2016-Apr-28 17:33N 18°28' W 066°06'0 0.0
2016-Apr-28 16:33N 18°28' W 066°06'0 0.0
2016-Apr-28 15:33N 18°28' W 066°06'0 0.0
2016-Apr-28 14:33N 18°28' W 066°06'0 0.0
2016-Apr-28 13:32N 18°28' W 066°06'0 0.0
2016-Apr-28 12:33N 18°28' W 066°06'0 0.0
2016-Apr-28 11:33N 18°28' W 066°06'0 0.0
2016-Apr-28 10:33N 18°28' W 066°06'0 0.0
2016-Apr-28 09:33N 18°28' W 066°06'0 0.0
2016-Apr-28 08:33N 18°28' W 066°06'0 0.0
2016-Apr-28 07:34N 18°28' W 066°06'0 0.0
2016-Apr-28 06:34N 18°28' W 066°06'0 0.0
2016-Apr-28 05:33N 18°28' W 066°06'0 0.0
2016-Apr-28 04:33N 18°28' W 066°06'0 0.0
2016-Apr-28 03:33N 18°28' W 066°06'0 0.0
2016-Apr-28 02:33N 18°28' W 066°06'0 0.0
2016-Apr-28 01:33N 18°28' W 066°06'0 0.0
2016-Apr-28 00:33N 18°28' W 066°06'0 0.0
2016-Apr-27 23:33N 18°28' W 066°06'0 0.0
2016-Apr-27 22:33N 18°28' W 066°06'0 0.0
2016-Apr-27 21:33N 18°28' W 066°06'0 0.0
2016-Apr-27 20:33N 18°28' W 066°06'0 0.0
2016-Apr-27 19:33N 18°28' W 066°06'0 0.0
2016-Apr-27 18:33N 18°28' W 066°06'0 0.0
2016-Apr-27 17:33N 18°28' W 066°06'0 0.0
2016-Apr-27 16:33N 18°28' W 066°06'0 0.0
2016-Apr-27 15:33N 18°28' W 066°06'0 0.5
2016-Apr-27 14:33N 18°27' W 066°07'68 9.5
2016-Apr-27 07:26N 18°26' W 064°55'910.1
2016-Apr-27 06:33N 18°23' W 064°47'10 9.3
2016-Apr-27 05:31N 18°25' W 064°36'  
2016-Apr-23 00:15N 18°25' W 064°36'6 8.9
2016-Apr-22 23:33N 18°23' W 064°43'9 8.8
2016-Apr-22 22:33N 18°18' W 064°51'68 3.6
2016-Apr-22 03:22N 18°30' W 066°02'6 7.1
2016-Apr-22 02:33N 18°27' W 066°07'1 0.9
2016-Apr-22 01:33N 18°28' W 066°06'0 0.0
2016-Apr-22 00:33N 18°28' W 066°06'0 0.0
2016-Apr-21 23:33N 18°28' W 066°06'0 0.0
2016-Apr-21 22:33N 18°28' W 066°06'0 0.0
2016-Apr-21 21:33N 18°28' W 066°06'0 0.0
2016-Apr-21 18:17N 18°28' W 066°06'0 0.0
2016-Apr-21 17:33N 18°28' W 066°06'0 0.0
2016-Apr-21 16:33N 18°28' W 066°06'0 0.0
2016-Apr-21 15:33N 18°28' W 066°06'0 0.0
2016-Apr-21 14:33N 18°28' W 066°06'0 0.0
2016-Apr-21 13:33N 18°28' W 066°06'0 0.0
2016-Apr-21 12:33N 18°28' W 066°06'0 0.0
2016-Apr-21 11:33N 18°28' W 066°06'0 0.0
2016-Apr-21 10:33N 18°28' W 066°06'0 0.0
2016-Apr-21 09:33N 18°28' W 066°06'0 0.0
2016-Apr-21 08:33N 18°28' W 066°06'0 0.0
2016-Apr-21 07:33N 18°28' W 066°06'0 0.0
2016-Apr-21 06:33N 18°28' W 066°06'0 0.0
2016-Apr-21 05:33N 18°28' W 066°06'0 0.0
2016-Apr-21 04:33N 18°28' W 066°06'0 0.0
2016-Apr-21 03:33N 18°28' W 066°06'0 0.0
2016-Apr-21 02:33N 18°28' W 066°06'0 0.0
2016-Apr-21 01:33N 18°28' W 066°06'0 0.0
2016-Apr-21 00:33N 18°28' W 066°06'0 0.0
2016-Apr-20 23:33N 18°28' W 066°06'0 0.0
2016-Apr-20 22:33N 18°28' W 066°06'0 0.0
2016-Apr-20 21:33N 18°28' W 066°06'0 0.0
2016-Apr-20 20:33N 18°28' W 066°06'0 0.0
2016-Apr-20 19:33N 18°28' W 066°06'0 0.0
2016-Apr-20 18:33N 18°28' W 066°06'0 0.0
2016-Apr-20 17:33N 18°28' W 066°06'0 0.0
2016-Apr-20 16:33N 18°28' W 066°06'0 0.0
2016-Apr-20 15:33N 18°28' W 066°06'0 0.0
2016-Apr-20 14:33N 18°28' W 066°06'68 6.8
2016-Apr-20 04:33N 18°26' W 064°54'9 9.5
2016-Apr-20 03:33N 18°23' W 064°45'8 0.7
2016-Apr-19 15:28N 18°26' W 064°37'0 0.0
2016-Apr-19 14:24N 18°26' W 064°37'  

Dump ship's entire track history